Time;durP1;ratioP1;P1;durP2;ratioP2;P2;SDS_P1;SDS_P2;PMS_P1;PMS_P2;Temp;Humidity;BMP_temperature;BMP_pressure;BME280_temperature;BME280_humidity;BME280_pressure;Samples;Min_cycle;Max_cycle;Signal;HPM_P1;HPM_P2
2022/02/20 00:01:19;;;;;;;5.05;1.70;;;;;;;12.01;46.91;100418.66;5016996;28;20050;-76
2022/02/20 00:03:46;;;;;;;4.18;1.70;;;;;;;12.00;46.47;100422.38;5021917;28;20069;-76
2022/02/20 00:06:16;;;;;;;5.10;1.70;;;;;;;12.01;46.34;100429.53;5013328;28;20049;-76
2022/02/20 00:08:43;;;;;;;5.63;1.40;;;;;;;12.03;46.16;100429.41;5020286;28;20513;-76
2022/02/20 00:11:10;;;;;;;5.28;1.80;;;;;;;12.03;46.18;100443.88;5001421;28;20506;-76
2022/02/20 00:13:36;;;;;;;4.45;1.25;;;;;;;12.02;45.92;100457.63;5010373;28;20488;-76
2022/02/20 00:16:04;;;;;;;4.63;1.35;;;;;;;12.00;45.80;100454.16;5010517;28;20108;-76
2022/02/20 00:18:30;;;;;;;3.88;1.52;;;;;;;12.02;45.64;100471.22;5009145;28;20076;-74
2022/02/20 00:20:57;;;;;;;4.78;1.50;;;;;;;12.02;45.54;100465.78;5011340;28;20137;-74
2022/02/20 00:23:23;;;;;;;4.38;1.60;;;;;;;12.00;45.19;100474.06;5009273;28;20096;-74
2022/02/20 00:25:50;;;;;;;3.33;1.77;;;;;;;12.00;45.13;100479.50;5009962;28;20053;-74
2022/02/20 00:28:17;;;;;;;4.45;1.77;;;;;;;11.96;45.31;100478.00;5009883;28;20057;-74
2022/02/20 00:30:44;;;;;;;4.32;1.83;;;;;;;11.94;45.33;100482.69;5008425;28;20100;-74
2022/02/20 00:33:12;;;;;;;3.45;1.65;;;;;;;11.94;45.03;100471.81;5007680;28;20058;-74
2022/02/20 00:35:39;;;;;;;4.88;1.80;;;;;;;11.90;44.74;100500.25;5009811;28;20077;-76
2022/02/20 00:38:09;;;;;;;4.53;1.50;;;;;;;11.90;45.08;100512.97;5008393;28;20081;-76
2022/02/20 00:40:36;;;;;;;4.75;1.77;;;;;;;11.90;44.70;100512.97;5009944;28;20077;-76
2022/02/20 00:43:05;;;;;;;2.88;1.50;;;;;;;11.89;44.77;100522.13;5009497;28;20054;-75
2022/02/20 00:45:32;;;;;;;4.13;2.00;;;;;;;11.84;44.44;100517.06;5009475;28;20053;-76
2022/02/20 00:47:59;;;;;;;4.80;2.10;;;;;;;11.84;44.59;100537.94;5010874;28;20053;-76
2022/02/20 00:50:27;;;;;;;3.38;1.88;;;;;;;11.82;44.61;100547.09;5009818;28;20139;-76
2022/02/20 00:52:54;;;;;;;3.90;1.90;;;;;;;11.78;44.58;100528.38;5009319;28;20105;-76
2022/02/20 00:55:20;;;;;;;4.40;1.75;;;;;;;11.74;44.71;100564.94;5009044;28;20053;-76
2022/02/20 00:57:47;;;;;;;3.40;1.80;;;;;;;11.75;44.55;100573.03;5013616;28;20049;-76
2022/02/20 01:00:14;;;;;;;4.13;2.00;;;;;;;11.75;44.42;100581.19;5017928;28;20080;-74
2022/02/20 01:02:41;;;;;;;4.95;2.08;;;;;;;11.74;44.79;100593.03;5009957;28;20046;-73
2022/02/20 01:05:10;;;;;;;3.40;1.83;;;;;;;11.75;44.75;100602.06;5008625;28;20069;-74
2022/02/20 01:07:37;;;;;;;3.08;1.77;;;;;;;11.74;44.51;100600.31;5009664;28;20085;-74
2022/02/20 01:10:06;;;;;;;4.10;1.52;;;;;;;11.77;44.56;100587.38;5007136;28;20050;-74
2022/02/20 01:12:32;;;;;;;3.80;2.42;;;;;;;11.77;44.15;100611.88;5023384;28;20050;-74
2022/02/20 01:14:59;;;;;;;6.95;2.50;;;;;;;11.76;44.52;100625.56;5018848;28;20096;-74
2022/02/20 01:17:26;;;;;;;4.47;2.30;;;;;;;11.75;44.14;100621.09;5017117;28;20062;-74
2022/02/20 01:19:53;;;;;;;6.07;2.50;;;;;;;11.73;44.00;100629.34;5006765;28;20547;-74
2022/02/20 01:22:21;;;;;;;5.53;2.88;;;;;;;11.71;43.75;100634.03;5009681;28;20548;-74
2022/02/20 01:24:48;;;;;;;4.63;2.45;;;;;;;11.66;43.75;100638.94;5006250;28;20081;-74
2022/02/20 01:27:14;;;;;;;4.32;2.70;;;;;;;11.60;43.68;100636.69;5004641;28;20199;-74
2022/02/20 01:29:41;;;;;;;4.30;2.08;;;;;;;11.57;43.82;100652.34;4995887;28;20053;-74
2022/02/20 01:32:07;;;;;;;4.30;2.42;;;;;;;11.55;43.53;100629.84;5022167;28;20144;-74
2022/02/20 01:34:34;;;;;;;3.53;2.13;;;;;;;11.49;43.58;100661.09;5022122;28;20129;-74
2022/02/20 01:37:01;;;;;;;5.55;2.28;;;;;;;11.45;43.49;100668.59;5006758;28;20137;-74
2022/02/20 01:39:27;;;;;;;4.25;2.40;;;;;;;11.42;43.52;100681.56;5009915;28;20452;-74
2022/02/20 01:41:54;;;;;;;3.65;2.20;;;;;;;11.39;43.67;100687.19;5009703;28;20050;-74
2022/02/20 01:44:21;;;;;;;4.25;2.20;;;;;;;11.34;43.39;100683.97;5008502;28;20065;-74
2022/02/20 01:46:50;;;;;;;2.65;1.83;;;;;;;11.33;43.05;100685.81;5008599;28;20061;-74
2022/02/20 01:49:18;;;;;;;2.95;1.70;;;;;;;11.27;43.18;100694.41;5007767;28;20136;-74
2022/02/20 01:51:45;;;;;;;4.35;1.80;;;;;;;11.23;43.12;100705.59;5008962;28;20088;-74
2022/02/20 01:54:11;;;;;;;3.22;1.58;;;;;;;11.19;43.18;100715.84;5013614;28;20419;-74
2022/02/20 01:56:38;;;;;;;5.43;1.70;;;;;;;11.19;43.20;100710.41;5008994;28;20104;-74
2022/02/20 01:59:05;;;;;;;4.07;1.45;;;;;;;11.13;43.03;100715.38;5008825;28;20367;-73
2022/02/20 02:01:32;;;;;;;3.40;1.58;;;;;;;11.07;42.94;100714.84;5009396;28;20045;-73
2022/02/20 02:03:59;;;;;;;3.72;1.38;;;;;;;11.04;43.01;100711.47;5007765;28;20104;-74
2022/02/20 02:06:25;;;;;;;3.65;1.42;;;;;;;10.98;43.32;100720.06;5008000;28;20085;-73
2022/02/20 02:08:52;;;;;;;2.95;1.20;;;;;;;10.94;43.06;100724.00;5007594;28;20104;-73
2022/02/20 02:11:19;;;;;;;4.63;1.50;;;;;;;10.88;42.80;100741.56;5009275;28;20100;-73
2022/02/20 02:13:45;;;;;;;4.60;1.50;;;;;;;10.86;43.35;100748.97;5007830;28;20512;-75
2022/02/20 02:16:12;;;;;;;3.25;1.20;;;;;;;10.86;43.32;100758.97;5016695;28;20053;-73
2022/02/20 02:18:42;;;;;;;3.78;1.30;;;;;;;10.84;43.27;100750.91;5014770;28;20135;-73
2022/02/20 02:21:08;;;;;;;4.30;1.33;;;;;;;10.80;43.39;100753.94;5011371;28;20128;-76
2022/02/20 02:23:35;;;;;;;2.28;1.20;;;;;;;10.81;43.47;100755.69;4998222;28;20088;-76
2022/02/20 02:26:04;;;;;;;5.68;1.20;;;;;;;10.80;43.88;100771.09;5011331;28;20138;-75
2022/02/20 02:28:34;;;;;;;5.25;1.50;;;;;;;10.81;43.59;100759.28;5011066;28;20096;-76
2022/02/20 02:31:05;;;;;;;3.55;1.23;;;;;;;10.82;43.45;100768.28;5012291;28;20104;-76
2022/02/20 02:33:33;;;;;;;2.78;1.35;;;;;;;10.79;43.62;100763.94;5011861;28;20116;-76
2022/02/20 02:36:01;;;;;;;6.72;1.60;;;;;;;10.83;43.51;100772.75;5011597;28;20081;-76
2022/02/20 02:38:29;;;;;;;4.07;1.60;;;;;;;10.78;43.67;100783.94;5011654;28;20054;-76
2022/02/20 02:40:59;;;;;;;3.22;1.33;;;;;;;10.80;43.68;100787.41;5011782;28;20485;-76
2022/02/20 02:43:27;;;;;;;2.22;1.35;;;;;;;10.78;43.76;100781.22;5009974;28;20509;-76
2022/02/20 02:45:54;;;;;;;2.65;1.20;;;;;;;10.79;43.78;100788.38;5011638;28;20477;-76
2022/02/20 02:48:20;;;;;;;3.78;1.38;;;;;;;10.77;43.79;100795.78;5010124;28;20050;-75
2022/02/20 02:50:47;;;;;;;6.05;1.60;;;;;;;10.79;43.69;100788.38;5012353;28;20133;-76
2022/02/20 02:53:14;;;;;;;3.17;1.40;;;;;;;10.80;43.81;100795.53;5011689;28;20077;-76
2022/02/20 02:55:45;;;;;;;4.07;1.38;;;;;;;10.83;43.95;100794.47;5012484;28;20050;-76
2022/02/20 02:58:20;;;;;;;3.40;1.40;;;;;;;10.85;43.98;100793.41;5016758;28;20133;-76
2022/02/20 03:00:47;;;;;;;3.72;1.40;;;;;;;10.83;43.63;100798.06;5011536;28;20564;-76
2022/02/20 03:03:14;;;;;;;2.80;1.30;;;;;;;10.83;43.73;100795.34;5006716;28;20516;-76
2022/02/20 03:05:41;;;;;;;4.00;1.23;;;;;;;10.85;44.03;100801.56;5011464;28;20125;-76
2022/02/20 03:08:08;;;;;;;3.97;1.40;;;;;;;10.87;43.82;100807.72;5010987;28;20054;-76
2022/02/20 03:10:35;;;;;;;3.72;1.40;;;;;;;10.89;44.00;100816.66;5013546;28;20130;-76
2022/02/20 03:13:02;;;;;;;3.83;1.60;;;;;;;10.90;43.82;100815.66;5023053;28;20571;-76
2022/02/20 03:15:29;;;;;;;3.83;1.40;;;;;;;10.91;43.72;100824.69;5010430;28;20128;-76
2022/02/20 03:17:56;;;;;;;3.22;1.40;;;;;;;10.93;43.87;100825.47;5010835;28;20049;-76
2022/02/20 03:20:22;;;;;;;3.08;1.30;;;;;;;10.94;43.88;100832.66;5008876;28;20049;-76
2022/02/20 03:22:49;;;;;;;3.58;1.50;;;;;;;10.96;43.70;100833.38;5018432;28;20128;-76
2022/02/20 03:25:15;;;;;;;3.65;1.42;;;;;;;10.97;43.56;100835.13;5016015;28;20084;-76
2022/02/20 03:27:42;;;;;;;3.33;1.67;;;;;;;10.96;43.64;100833.38;5025815;28;20111;-76
2022/02/20 03:30:09;;;;;;;5.05;1.63;;;;;;;10.97;43.73;100829.69;5019347;28;20081;-76
2022/02/20 03:32:36;;;;;;;5.00;1.50;;;;;;;10.96;43.72;100830.66;5005937;28;20054;-74
2022/02/20 03:35:03;;;;;;;5.13;1.40;;;;;;;10.96;43.71;100845.13;5010091;28;20462;-75
2022/02/20 03:37:30;;;;;;;3.58;1.63;;;;;;;10.96;43.55;100841.53;4997111;28;20078;-74
2022/02/20 03:39:57;;;;;;;3.65;1.38;;;;;;;10.97;43.67;100843.28;5009851;28;20062;-76
2022/02/20 03:42:24;;;;;;;2.60;1.40;;;;;;;10.95;43.65;100850.69;5022791;28;20050;-76
2022/02/20 03:44:50;;;;;;;2.95;1.50;;;;;;;10.96;43.69;100858.72;5008813;28;20077;-76
2022/02/20 03:47:17;;;;;;;3.83;1.52;;;;;;;10.95;43.40;100862.41;5010243;28;20541;-76
2022/02/20 03:49:43;;;;;;;4.40;1.73;;;;;;;10.95;43.63;100858.84;5010025;28;20100;-76
2022/02/20 03:52:10;;;;;;;4.25;1.60;;;;;;;10.94;43.78;100862.53;5012078;28;20100;-76
2022/02/20 03:54:36;;;;;;;3.15;1.42;;;;;;;10.94;43.63;100859.81;5007974;28;20092;-76
2022/02/20 03:57:03;;;;;;;3.85;1.55;;;;;;;10.94;43.57;100855.25;5010405;28;20481;-76
2022/02/20 03:59:30;;;;;;;2.83;1.30;;;;;;;10.94;43.65;100849.81;5010061;28;20149;-76
2022/02/20 04:01:56;;;;;;;3.35;1.52;;;;;;;10.94;43.66;100852.53;5011533;28;20062;-76
2022/02/20 04:04:23;;;;;;;2.30;1.50;;;;;;;10.94;43.70;100838.94;5009630;28;20135;-76
2022/02/20 04:06:51;;;;;;;1.98;1.38;;;;;;;10.95;43.66;100832.50;5010421;28;20698;-76
2022/02/20 04:09:18;;;;;;;3.05;1.40;;;;;;;10.96;43.70;100834.25;5009596;28;20104;-76
2022/02/20 04:11:45;;;;;;;2.72;1.25;;;;;;;10.96;43.85;100836.09;5017965;28;20084;-76
2022/02/20 04:14:11;;;;;;;2.38;1.30;;;;;;;10.97;44.00;100840.56;5016050;28;20085;-76
2022/02/20 04:16:38;;;;;;;3.67;1.50;;;;;;;10.96;43.63;100836.09;5004577;28;20141;-76
2022/02/20 04:19:04;;;;;;;4.53;1.50;;;;;;;10.95;43.92;100829.78;5009179;28;20100;-76
2022/02/20 04:21:31;;;;;;;3.60;1.52;;;;;;;10.96;44.04;100834.25;5005053;28;20133;-76
2022/02/20 04:23:57;;;;;;;2.53;1.30;;;;;;;10.98;44.35;100837.75;5008096;28;20152;-76
2022/02/20 04:26:24;;;;;;;4.50;1.42;;;;;;;10.97;44.21;100841.44;5010224;28;20125;-76
2022/02/20 04:28:50;;;;;;;3.05;1.42;;;;;;;10.98;44.13;100832.31;4999758;28;20074;-76
2022/02/20 04:31:18;;;;;;;3.35;1.48;;;;;;;10.99;44.13;100828.63;4991216;28;20136;-76
2022/02/20 04:33:45;;;;;;;4.13;1.50;;;;;;;10.99;44.38;100823.19;4990572;28;20042;-76
2022/02/20 04:36:12;;;;;;;4.70;1.55;;;;;;;11.01;44.38;100823.97;4983998;28;20086;-76
2022/02/20 04:38:39;;;;;;;3.63;1.58;;;;;;;11.02;44.22;100822.13;4990697;28;20069;-76
2022/02/20 04:41:06;;;;;;;3.20;1.58;;;;;;;11.02;44.39;100822.13;4989018;28;20141;-76
2022/02/20 04:43:33;;;;;;;4.53;1.67;;;;;;;11.02;44.32;100825.72;4991648;28;20101;-76
2022/02/20 04:46:00;;;;;;;4.47;1.80;;;;;;;11.02;44.44;100824.84;4987455;28;20129;-76
2022/02/20 04:48:26;;;;;;;4.50;1.83;;;;;;;11.02;44.36;100819.41;4990676;28;20097;-77
2022/02/20 04:50:53;;;;;;;3.60;1.80;;;;;;;11.03;44.50;100819.31;4990671;28;20084;-76
2022/02/20 04:53:19;;;;;;;3.47;1.90;;;;;;;11.03;44.54;100813.88;4988503;28;20459;-76
2022/02/20 04:55:47;;;;;;;4.97;1.90;;;;;;;11.01;44.54;100804.06;4998958;28;20204;-76
2022/02/20 04:58:13;;;;;;;4.88;2.20;;;;;;;11.02;44.53;100806.69;4989605;28;20055;-76
2022/02/20 05:00:40;;;;;;;3.90;2.00;;;;;;;11.02;44.41;100798.53;4995386;28;20133;-76
2022/02/20 05:03:06;;;;;;;3.67;1.90;;;;;;;11.02;44.31;100794.94;4989363;28;20058;-76
2022/02/20 05:05:40;;;;;;;5.53;2.05;;;;;;;11.02;44.29;100793.09;5063469;28;20403;-73
2022/02/20 05:08:06;;;;;;;4.68;1.70;;;;;;;11.01;44.53;100782.34;5046778;27;20560;-71
2022/02/20 05:10:33;;;;;;;3.70;2.10;;;;;;;11.02;44.63;100779.53;5009438;28;20629;-71
2022/02/20 05:12:59;;;;;;;4.30;2.20;;;;;;;11.01;44.59;100771.47;5035545;28;20140;-72
2022/02/20 05:15:26;;;;;;;4.18;2.30;;;;;;;11.01;44.37;100771.47;5037180;28;20049;-72
2022/02/20 05:17:53;;;;;;;4.97;2.40;;;;;;;11.00;44.26;100769.72;5023370;28;20088;-70
2022/02/20 05:20:20;;;;;;;3.97;2.70;;;;;;;11.01;44.51;100768.75;5040899;28;20110;-71
2022/02/20 05:22:47;;;;;;;4.00;2.70;;;;;;;11.00;44.32;100775.16;5049689;28;20098;-72
2022/02/20 05:25:14;;;;;;;3.88;2.70;;;;;;;10.99;44.49;100773.41;5029203;28;20551;-71
2022/02/20 05:27:44;;;;;;;5.53;2.90;;;;;;;11.00;44.59;100762.44;5039508;28;20179;-72
2022/02/20 05:30:16;;;;;;;5.95;3.38;;;;;;;11.01;44.80;100755.19;5035298;28;20090;-71
2022/02/20 05:32:43;;;;;;;6.28;3.30;;;;;;;10.96;44.59;100752.75;5045678;28;20367;-72
2022/02/20 05:35:09;;;;;;;5.95;3.33;;;;;;;10.97;44.58;100751.78;5040808;28;20129;-72
2022/02/20 05:37:47;;;;;;;5.88;3.25;;;;;;;11.00;45.49;100742.56;5046253;28;20132;-72
2022/02/20 05:40:19;;;;;;;5.88;3.20;;;;;;;10.96;45.13;100746.47;5044975;28;20056;-72
2022/02/20 05:42:46;;;;;;;4.95;3.20;;;;;;;10.93;44.93;100735.81;5057356;28;20136;-72
2022/02/20 05:45:12;;;;;;;8.50;4.00;;;;;;;10.94;44.78;100738.44;5043105;28;20053;-72
2022/02/20 05:47:39;;;;;;;5.95;3.28;;;;;;;10.94;45.01;100729.41;5041952;28;20387;-72
2022/02/20 05:50:08;;;;;;;6.38;3.35;;;;;;;10.93;44.94;100723.13;5039671;28;20142;-72
2022/02/20 05:52:34;;;;;;;5.28;2.90;;;;;;;10.92;44.61;100709.63;5046040;28;20082;-72
2022/02/20 05:55:01;;;;;;;4.22;3.03;;;;;;;10.91;44.79;100699.75;5030186;28;20045;-71
2022/02/20 05:57:28;;;;;;;5.68;2.97;;;;;;;10.88;44.92;100691.81;5037899;28;20407;-71
2022/02/20 05:59:55;;;;;;;6.28;3.25;;;;;;;10.87;44.94;100700.97;5036170;28;20161;-72
2022/02/20 06:02:21;;;;;;;6.72;3.40;;;;;;;10.86;45.00;100702.81;5041953;28;20497;-71
2022/02/20 06:04:48;;;;;;;5.57;3.35;;;;;;;10.85;45.23;100698.34;5034548;28;20128;-71
2022/02/20 06:07:14;;;;;;;6.22;3.58;;;;;;;10.84;45.30;100699.31;5044861;28;20450;-71
2022/02/20 06:09:41;;;;;;;6.47;3.28;;;;;;;10.84;45.37;100693.88;5054924;28;20053;-70
2022/02/20 06:12:08;;;;;;;5.68;3.30;;;;;;;10.85;45.66;100695.63;5029132;28;20988;-71
2022/02/20 06:14:34;;;;;;;5.30;2.97;;;;;;;10.85;45.43;100681.19;5028060;28;20092;-71
2022/02/20 06:17:01;;;;;;;9.32;3.90;;;;;;;10.86;45.50;100669.34;5018280;28;20084;-70
2022/02/20 06:19:27;;;;;;;6.25;3.17;;;;;;;10.87;45.44;100665.66;5017915;28;20056;-71
2022/02/20 06:21:54;;;;;;;9.25;3.45;;;;;;;10.88;45.40;100662.81;5049019;28;20076;-72
2022/02/20 06:24:20;;;;;;;5.78;3.20;;;;;;;10.88;45.84;100657.38;5027533;28;20598;-71
2022/02/20 06:26:47;;;;;;;8.82;4.10;;;;;;;10.90;45.99;100657.25;5028901;28;20447;-70
2022/02/20 06:29:13;;;;;;;6.25;3.15;;;;;;;10.91;45.97;100661.72;5025849;28;20084;-71
2022/02/20 06:31:41;;;;;;;7.40;3.85;;;;;;;10.91;46.11;100656.28;5022022;28;20052;-71
2022/02/20 06:34:07;;;;;;;8.73;3.63;;;;;;;10.92;46.33;100656.19;5022110;28;20140;-70
2022/02/20 06:36:35;;;;;;;5.85;2.97;;;;;;;10.92;46.14;100650.75;5025796;28;20060;-71
2022/02/20 06:39:05;;;;;;;6.53;2.90;;;;;;;10.95;46.19;100653.22;5025465;28;20054;-70
2022/02/20 06:41:32;;;;;;;6.45;3.40;;;;;;;10.94;46.24;100629.78;5027437;28;20523;-71
2022/02/20 06:43:58;;;;;;;6.65;3.08;;;;;;;10.94;46.05;100618.94;5022352;28;20146;-71
2022/02/20 06:46:25;;;;;;;8.18;3.08;;;;;;;10.95;46.12;100609.78;5023544;28;20541;-71
2022/02/20 06:48:51;;;;;;;7.25;3.00;;;;;;;10.95;46.29;100598.91;5021267;28;20081;-71
2022/02/20 06:51:18;;;;;;;6.15;3.45;;;;;;;10.96;46.58;100595.22;5025697;28;20130;-71
2022/02/20 06:53:44;;;;;;;4.85;2.70;;;;;;;10.95;46.73;100590.75;5038198;28;20140;-69
2022/02/20 06:56:11;;;;;;;7.20;3.17;;;;;;;10.96;46.67;100580.75;5025618;28;20041;-71
2022/02/20 06:58:38;;;;;;;8.73;3.22;;;;;;;10.97;46.82;100582.50;5044166;28;20498;-70
2022/02/20 07:01:05;;;;;;;4.93;2.72;;;;;;;10.96;46.86;100559.91;5034201;28;20057;-71
2022/02/20 07:03:31;;;;;;;6.88;3.00;;;;;;;10.97;46.89;100568.91;5012814;28;20065;-71
2022/02/20 07:05:58;;;;;;;5.88;2.60;;;;;;;10.98;47.00;100573.38;5034728;28;20076;-71
2022/02/20 07:08:25;;;;;;;7.55;2.30;;;;;;;10.99;46.94;100564.25;5023377;28;20046;-75
2022/02/20 07:10:51;;;;;;;5.30;2.20;;;;;;;10.98;46.91;100560.66;5027501;28;20053;-70
2022/02/20 07:13:18;;;;;;;6.60;2.30;;;;;;;10.97;47.03;100556.22;5025785;28;20148;-71
2022/02/20 07:15:44;;;;;;;6.40;2.47;;;;;;;10.99;47.21;100553.38;5034696;28;20037;-73
2022/02/20 07:18:11;;;;;;;5.78;2.28;;;;;;;11.00;47.44;100563.28;5028195;28;20513;-73
2022/02/20 07:20:37;;;;;;;5.00;2.13;;;;;;;11.00;47.39;100563.28;5052977;28;20140;-73
2022/02/20 07:23:04;;;;;;;5.70;2.00;;;;;;;11.01;47.20;100556.88;5016632;28;20458;-73
2022/02/20 07:25:30;;;;;;;6.85;2.45;;;;;;;11.02;47.54;100555.88;5028018;28;20045;-73
2022/02/20 07:27:57;;;;;;;5.32;2.10;;;;;;;11.02;47.54;100562.19;5028928;28;20127;-71
2022/02/20 07:30:27;;;;;;;5.90;2.20;;;;;;;11.02;47.65;100556.75;5011167;28;20045;-69
2022/02/20 07:33:00;;;;;;;3.47;1.80;;;;;;;11.05;47.60;100561.06;5022497;28;20050;-71
2022/02/20 07:35:27;;;;;;;4.82;1.77;;;;;;;11.02;47.47;100572.19;5017871;28;20413;-72
2022/02/20 07:37:53;;;;;;;5.10;1.77;;;;;;;11.07;47.56;100567.28;5015003;28;20141;-70
2022/02/20 07:40:20;;;;;;;4.05;1.65;;;;;;;11.07;47.80;100573.56;5021570;28;20050;-70
2022/02/20 07:42:46;;;;;;;5.78;1.60;;;;;;;11.10;48.08;100571.63;5040883;28;20469;-70
2022/02/20 07:45:13;;;;;;;7.30;2.03;;;;;;;11.12;48.14;100575.09;5021436;28;20328;-71
2022/02/20 07:47:52;;;;;;;6.38;1.70;;;;;;;11.16;48.92;100561.16;5024161;28;20091;-70
2022/02/20 07:50:24;;;;;;;6.57;1.85;;;;;;;11.18;48.71;100559.22;5024158;28;20494;-70
2022/02/20 07:52:51;;;;;;;7.38;1.88;;;;;;;11.19;48.38;100558.22;5023775;28;20136;-70
2022/02/20 07:55:18;;;;;;;5.20;1.90;;;;;;;11.23;48.68;100557.00;5016021;28;20137;-70
2022/02/20 07:57:45;;;;;;;4.82;2.00;;;;;;;11.26;48.68;100559.50;5034059;28;20144;-71
2022/02/20 08:00:13;;;;;;;5.25;2.05;;;;;;;11.33;49.13;100562.63;5003524;28;20111;-71
2022/02/20 08:02:42;;;;;;;3.67;1.63;;;;;;;11.36;49.23;100559.69;5006940;28;20069;-71
2022/02/20 08:05:09;;;;;;;4.57;1.60;;;;;;;11.42;49.51;100557.38;5014511;28;20060;-70
2022/02/20 08:07:35;;;;;;;4.18;1.73;;;;;;;11.47;49.54;100546.16;4998835;28;20054;-71
2022/02/20 08:10:04;;;;;;;3.05;1.48;;;;;;;11.53;49.61;100561.16;5025889;28;20133;-71
2022/02/20 08:12:30;;;;;;;5.60;1.48;;;;;;;11.56;49.72;100553.59;5016777;28;20053;-71
2022/02/20 08:14:57;;;;;;;4.25;1.40;;;;;;;11.61;49.86;100545.13;5028257;28;20419;-71
2022/02/20 08:17:25;;;;;;;5.85;1.60;;;;;;;11.69;49.99;100548.13;5017727;28;20045;-71
2022/02/20 08:19:52;;;;;;;4.13;1.30;;;;;;;11.71;50.10;100548.84;5025660;28;20080;-70
2022/02/20 08:22:22;;;;;;;4.43;1.40;;;;;;;11.76;49.96;100543.97;5025103;28;20091;-70
2022/02/20 08:24:49;;;;;;;3.15;1.10;;;;;;;11.80;50.01;100534.59;5018165;28;20149;-71
2022/02/20 08:27:16;;;;;;;4.35;1.40;;;;;;;11.84;50.17;100527.94;5021699;28;20049;-69
2022/02/20 08:29:43;;;;;;;3.42;1.23;;;;;;;11.87;50.31;100522.25;5014367;28;20092;-70
2022/02/20 08:32:10;;;;;;;4.72;1.30;;;;;;;11.92;50.34;100520.03;5024039;28;20057;-70
2022/02/20 08:34:37;;;;;;;3.70;1.27;;;;;;;11.96;50.54;100526.09;5011468;28;20045;-70
2022/02/20 08:37:05;;;;;;;4.93;1.55;;;;;;;11.98;50.70;100524.13;5005822;28;20081;-71
2022/02/20 08:39:32;;;;;;;3.78;1.50;;;;;;;12.02;50.84;100518.34;5015112;28;20046;-71
2022/02/20 08:41:58;;;;;;;5.50;1.80;;;;;;;12.07;51.21;100517.97;5019469;28;20112;-71
2022/02/20 08:44:25;;;;;;;6.07;2.05;;;;;;;12.09;51.21;100491.50;5021695;28;20165;-71
2022/02/20 08:46:51;;;;;;;4.47;1.45;;;;;;;12.13;51.04;100496.59;5013235;28;20443;-70
2022/02/20 08:49:18;;;;;;;4.63;1.80;;;;;;;12.16;51.32;100507.25;5017686;28;20107;-71
2022/02/20 08:51:44;;;;;;;4.38;1.83;;;;;;;12.17;51.41;100505.38;5040630;28;20053;-70
2022/02/20 08:54:11;;;;;;;4.50;1.63;;;;;;;12.20;51.59;100510.56;5022169;28;20049;-71
2022/02/20 08:56:37;;;;;;;3.53;1.75;;;;;;;12.22;51.43;100495.00;5013578;28;20495;-70
2022/02/20 08:59:04;;;;;;;4.55;1.85;;;;;;;12.26;51.52;100493.78;5022248;28;20048;-71
2022/02/20 09:01:31;;;;;;;4.75;2.05;;;;;;;12.34;51.45;100501.31;5019682;28;20061;-70
2022/02/20 09:04:02;;;;;;;4.47;1.63;;;;;;;12.34;51.55;100496.75;5020574;28;20054;-70
2022/02/20 09:06:30;;;;;;;4.65;2.10;;;;;;;12.36;51.67;100496.59;5031989;28;20095;-70
2022/02/20 09:08:57;;;;;;;4.40;1.45;;;;;;;12.40;51.80;100509.88;5013629;28;20057;-70
2022/02/20 09:11:26;;;;;;;2.85;1.30;;;;;;;12.41;51.62;100506.16;5023377;28;20380;-70
2022/02/20 09:13:52;;;;;;;3.05;1.15;;;;;;;12.44;51.71;100510.47;5022298;28;20050;-70
2022/02/20 09:16:19;;;;;;;4.22;1.85;;;;;;;12.48;51.52;100501.06;5026027;28;20149;-70
2022/02/20 09:18:45;;;;;;;3.92;1.40;;;;;;;12.51;51.72;100511.72;5027936;28;20308;-70
2022/02/20 09:21:13;;;;;;;4.82;1.33;;;;;;;12.54;51.48;100511.47;5009510;28;20045;-70
2022/02/20 09:23:40;;;;;;;3.78;1.10;;;;;;;12.56;51.72;100504.91;5006835;28;20053;-71
2022/02/20 09:26:08;;;;;;;3.33;0.98;;;;;;;12.58;52.04;100502.06;5024257;28;20131;-70
2022/02/20 09:28:34;;;;;;;2.72;1.23;;;;;;;12.59;51.98;100503.81;5003887;28;20141;-71
2022/02/20 09:31:01;;;;;;;3.25;1.30;;;;;;;12.60;51.94;100491.91;4994876;28;20436;-68
2022/02/20 09:33:28;;;;;;;4.60;1.40;;;;;;;12.67;51.96;100503.19;4991792;28;20058;-68
2022/02/20 09:35:54;;;;;;;5.97;1.50;;;;;;;12.71;52.10;100499.22;5001318;28;20141;-68
2022/02/20 09:38:21;;;;;;;4.47;1.40;;;;;;;12.71;52.10;100507.38;4999374;28;20522;-68
2022/02/20 09:40:48;;;;;;;4.25;1.77;;;;;;;12.72;52.21;100496.38;4996528;28;20093;-68
2022/02/20 09:43:16;;;;;;;3.85;1.70;;;;;;;12.76;52.08;100503.31;5001768;28;20124;-68
2022/02/20 09:45:46;;;;;;;4.05;1.80;;;;;;;12.82;52.26;100493.75;5012623;28;20521;-69
2022/02/20 09:48:13;;;;;;;3.75;1.60;;;;;;;12.82;52.44;100499.22;5023496;28;20133;-68
2022/02/20 09:50:41;;;;;;;4.32;1.60;;;;;;;12.83;52.35;100490.91;5011628;28;20499;-70
2022/02/20 09:53:08;;;;;;;3.88;1.45;;;;;;;12.88;52.45;100482.34;5011631;28;20049;-67
2022/02/20 09:55:34;;;;;;;3.80;1.33;;;;;;;12.90;52.22;100485.81;5025465;28;20144;-68
2022/02/20 09:58:01;;;;;;;4.15;1.60;;;;;;;12.95;52.51;100483.56;5026528;28;20287;-69
2022/02/20 10:00:28;;;;;;;4.85;1.90;;;;;;;12.97;52.59;100489.78;5019891;28;20073;-69
2022/02/20 10:02:54;;;;;;;3.60;1.50;;;;;;;12.98;52.40;100496.09;5024944;28;20676;-69
2022/02/20 10:05:22;;;;;;;3.30;1.42;;;;;;;13.00;52.48;100488.66;5028792;28;20128;-69
2022/02/20 10:07:51;;;;;;;3.70;1.30;;;;;;;13.02;52.52;100486.66;5019199;28;20054;-70
2022/02/20 10:10:27;;;;;;;3.60;1.50;;;;;;;13.06;53.15;100488.16;5016534;28;20045;-69
2022/02/20 10:12:59;;;;;;;2.88;1.80;;;;;;;13.05;53.07;100472.78;5027993;28;20497;-69
2022/02/20 10:15:30;;;;;;;3.83;1.30;;;;;;;13.04;52.79;100474.63;5026067;28;20455;-69
2022/02/20 10:18:10;;;;;;;5.47;2.13;;;;;;;13.07;52.66;100476.25;5031822;28;20426;-69
2022/02/20 10:20:38;;;;;;;2.88;1.30;;;;;;;13.07;52.51;100470.81;5016379;28;20060;-70
2022/02/20 10:23:09;;;;;;;2.83;1.20;;;;;;;13.10;52.62;100476.84;5015937;28;20058;-68
2022/02/20 10:25:42;;;;;;;2.70;1.20;;;;;;;13.12;52.45;100450.34;5008264;28;20054;-67
2022/02/20 10:28:10;;;;;;;4.00;1.40;;;;;;;13.14;52.51;100452.97;5005923;28;20058;-67
2022/02/20 10:30:37;;;;;;;3.72;1.58;;;;;;;13.14;52.96;100470.19;4996872;28;20137;-67
2022/02/20 10:33:16;;;;;;;3.85;1.30;;;;;;;13.19;52.82;100467.06;5001332;28;20548;-67
2022/02/20 10:35:45;;;;;;;3.70;1.20;;;;;;;13.18;52.60;100468.94;4996886;28;20475;-70
2022/02/20 10:38:20;;;;;;;3.50;1.52;;;;;;;13.22;53.12;100467.69;5003212;28;20062;-67
2022/02/20 10:40:48;;;;;;;4.18;1.42;;;;;;;13.23;52.95;100449.47;5004872;28;20128;-67
2022/02/20 10:43:33;;;;;;;4.07;1.40;;;;;;;13.29;52.72;100459.84;5010723;28;20074;-67
2022/02/20 10:46:09;;;;;;;3.95;1.52;;;;;;;13.33;53.15;100459.50;5016900;28;20148;-67
2022/02/20 10:48:41;;;;;;;5.05;1.55;;;;;;;13.41;52.86;100466.16;5014824;28;20068;-67
2022/02/20 10:51:08;;;;;;;4.00;1.35;;;;;;;13.41;52.61;100458.84;5033147;28;20095;-67
2022/02/20 10:53:34;;;;;;;4.25;1.50;;;;;;;13.43;53.07;100451.38;5025591;28;20128;-67
2022/02/20 10:56:01;;;;;;;2.63;1.25;;;;;;;13.49;52.59;100448.13;5034395;28;20133;-67
2022/02/20 10:58:30;;;;;;;3.67;1.25;;;;;;;13.53;53.01;100451.44;5052321;28;20082;-68
2022/02/20 11:00:59;;;;;;;3.58;1.30;;;;;;;13.57;52.77;100461.97;5009724;28;20471;-68
2022/02/20 11:03:30;;;;;;;2.72;1.15;;;;;;;13.63;52.54;100460.56;5015966;28;20053;-68
2022/02/20 11:05:59;;;;;;;2.50;1.10;;;;;;;13.66;52.36;100454.88;5019047;28;20052;-68
2022/02/20 11:08:28;;;;;;;3.13;1.15;;;;;;;13.65;52.57;100473.09;5026561;28;20089;-67
2022/02/20 11:10:56;;;;;;;3.83;1.30;;;;;;;13.68;52.34;100461.03;5030976;28;20099;-67
2022/02/20 11:13:24;;;;;;;2.95;1.13;;;;;;;13.75;52.45;100455.94;5022818;28;20085;-68
2022/02/20 11:15:54;;;;;;;2.53;1.00;;;;;;;13.75;52.22;100453.22;5016668;28;20072;-67
2022/02/20 11:18:21;;;;;;;2.53;0.90;;;;;;;13.75;52.38;100472.31;5012393;28;20421;-68
2022/02/20 11:20:52;;;;;;;4.78;1.40;;;;;;;13.85;52.07;100460.44;5033234;28;20045;-65
2022/02/20 11:23:27;;;;;;;4.75;1.60;;;;;;;13.84;52.03;100444.19;5017308;28;20538;-67
2022/02/20 11:25:56;;;;;;;4.05;1.42;;;;;;;13.83;51.79;100426.13;5021758;28;20041;-67